^^
Your Local Weather - Clay, NY Station Historical Data
 
Daily Summary for October 18, 2017 Units:  English    Metric   Both
« Previous Day
Next Day »
Daily Weekly Monthly Yearly Custom
  Current: High: Low: Average:
Temperature: 60.9 °F 71.4 °F 47.4 °F 59.4 °F
Dew Point: 49.1 °F 52.2 °F 39.5 °F 45.3 °F
Humidity: 65% 80% 41% 61%
Wind Speed: 0.0mph 4.0mph 0.0mph 1.2mph
Wind Gust: 0.0mph 7.0mph - -
WindCalm - - SW
Pressure: 30.14 in 30.25 in 30.13 in -
Precipitation: 0.00 in      
Historical Graphs
 
 
Tabular Data for October 18, 2017
Time Temperature Dew Point Pressure Wind Wind Speed Wind Gust Humidity Rainfall Rate (Hourly) solar
00:04 54.4 °F 39.5 °F 30.14 in WSW 2.0 mph 3.0 mph 57% 0.00 in 0 W/m2
00:10 54.2 °F 39.7 °F 30.14 in WSW 2.0 mph 2.0 mph 58% 0.00 in 0 W/m2
00:16 54.0 °F 39.5 °F 30.14 in SW 1.0 mph 2.0 mph 58% 0.00 in 0 W/m2
00:22 53.9 °F 39.5 °F 30.13 in SW 1.0 mph 4.0 mph 58% 0.00 in 0 W/m2
00:28 53.9 °F 39.5 °F 30.14 in SW 1.0 mph 4.0 mph 58% 0.00 in 0 W/m2
00:34 54.3 °F 39.8 °F 30.13 in SW 2.0 mph 4.0 mph 58% 0.00 in 0 W/m2
00:40 54.4 °F 39.9 °F 30.13 in SW 2.0 mph 4.0 mph 58% 0.00 in 0 W/m2
00:46 54.5 °F 40.0 °F 30.13 in SW 2.0 mph 5.0 mph 58% 0.00 in 0 W/m2
00:52 54.6 °F 40.1 °F 30.13 in SSW 3.0 mph 4.0 mph 58% 0.00 in 0 W/m2
00:58 54.5 °F 40.0 °F 30.13 in WSW 3.0 mph 4.0 mph 58% 0.00 in 0 W/m2
01:04 54.7 °F 39.8 °F 30.13 in SW 3.0 mph 6.0 mph 57% 0.00 in 0 W/m2
01:10 54.6 °F 40.1 °F 30.13 in SW 3.0 mph 3.0 mph 58% 0.00 in 0 W/m2
01:16 54.7 °F 39.8 °F 30.13 in SW 3.0 mph 5.0 mph 57% 0.00 in 0 W/m2
01:22 54.9 °F 40.4 °F 30.13 in West 3.0 mph 3.0 mph 58% 0.00 in 0 W/m2
01:28 55.0 °F 40.0 °F 30.13 in SW 3.0 mph 4.0 mph 57% 0.00 in 0 W/m2
01:34 55.0 °F 40.0 °F 30.13 in SW 3.0 mph 4.0 mph 57% 0.00 in 0 W/m2
01:40 54.9 °F 39.9 °F 30.13 in WSW 2.0 mph 2.0 mph 57% 0.00 in 0 W/m2
01:46 54.7 °F 40.2 °F 30.13 in South 2.0 mph 3.0 mph 58% 0.00 in 0 W/m2
01:52 54.5 °F 40.5 °F 30.13 in WSW 1.0 mph 4.0 mph 59% 0.00 in 0 W/m2
01:58 54.3 °F 40.3 °F 30.13 in SW 1.0 mph 4.0 mph 59% 0.00 in 0 W/m2
02:04 54.7 °F 40.6 °F 30.14 in WSW 3.0 mph 4.0 mph 59% 0.00 in 0 W/m2
02:10 54.7 °F 40.6 °F 30.14 in SW 2.0 mph 2.0 mph 59% 0.00 in 0 W/m2
02:16 54.5 °F 40.5 °F 30.14 in SSW 1.0 mph 2.0 mph 59% 0.00 in 0 W/m2
02:22 54.3 °F 40.7 °F 30.14 in SW 1.0 mph 1.0 mph 60% 0.00 in 0 W/m2
02:28 54.1 °F 40.5 °F 30.14 in SW 2.0 mph 2.0 mph 60% 0.00 in 0 W/m2
02:34 54.1 °F 40.5 °F 30.14 in West 2.0 mph 3.0 mph 60% 0.00 in 0 W/m2
02:40 54.1 °F 40.5 °F 30.14 in SW 2.0 mph 3.0 mph 60% 0.00 in 0 W/m2
02:46 53.9 °F 40.8 °F 30.14 in SW 1.0 mph 3.0 mph 61% 0.00 in 0 W/m2
02:52 53.7 °F 40.6 °F 30.15 in WSW 1.0 mph 1.0 mph 61% 0.00 in 0 W/m2
02:58 53.7 °F 40.6 °F 30.15 in WSW 1.0 mph 1.0 mph 61% 0.00 in 0 W/m2
03:04 53.5 °F 40.8 °F 30.15 in WSW 1.0 mph 3.0 mph 62% 0.00 in 0 W/m2
03:10 53.2 °F 40.5 °F 30.15 in SW 1.0 mph 2.0 mph 62% 0.00 in 0 W/m2
03:16 53.2 °F 40.9 °F 30.15 in SW 1.0 mph 2.0 mph 63% 0.00 in 0 W/m2
03:22 53.0 °F 40.7 °F 30.15 in SW 1.0 mph 1.0 mph 63% 0.00 in 0 W/m2
03:28 52.8 °F 41.0 °F 30.15 in SW 1.0 mph 2.0 mph 64% 0.00 in 0 W/m2
03:34 52.6 °F 40.8 °F 30.15 in SW 1.0 mph 1.0 mph 64% 0.00 in 0 W/m2
03:40 52.4 °F 41.0 °F 30.15 in Calm     65% 0.00 in 0 W/m2
03:46 52.0 °F 40.6 °F 30.15 in Calm     65% 0.00 in 0 W/m2
03:52 51.6 °F 40.6 °F 30.15 in Calm     66% 0.00 in 0 W/m2
03:58 51.3 °F 40.7 °F 30.15 in Calm     67% 0.00 in 0 W/m2
04:04 51.2 °F 41.0 °F 30.15 in Calm     68% 0.00 in 0 W/m2
04:10 51.2 °F 41.0 °F 30.15 in Calm     68% 0.00 in 0 W/m2
04:16 51.2 °F 41.0 °F 30.16 in Calm     68% 0.00 in 0 W/m2
04:22 51.1 °F 41.3 °F 30.16 in Calm   1.0 mph 69% 0.00 in 0 W/m2
04:28 51.0 °F 41.2 °F 30.16 in Calm   1.0 mph 69% 0.00 in 0 W/m2
04:34 50.9 °F 41.1 °F 30.16 in Calm   1.0 mph 69% 0.00 in 0 W/m2
04:40 50.8 °F 41.0 °F 30.16 in Calm     69% 0.00 in 0 W/m2
04:46 50.5 °F 41.1 °F 30.16 in Calm     70% 0.00 in 0 W/m2
04:52 50.0 °F 41.0 °F 30.16 in Calm     71% 0.00 in 0 W/m2
04:58 49.7 °F 41.0 °F 30.16 in Calm     72% 0.00 in 0 W/m2
05:04 49.6 °F 41.3 °F 30.16 in Calm     73% 0.00 in 0 W/m2
05:10 49.4 °F 41.1 °F 30.17 in Calm     73% 0.00 in 0 W/m2
05:16 49.2 °F 41.3 °F 30.17 in Calm   1.0 mph 74% 0.00 in 0 W/m2
05:22 49.3 °F 41.4 °F 30.17 in Calm     74% 0.00 in 0 W/m2
05:28 49.4 °F 41.5 °F 30.17 in Calm     74% 0.00 in 0 W/m2
05:34 49.4 °F 41.5 °F 30.18 in Calm     74% 0.00 in 0 W/m2
05:40 49.0 °F 41.4 °F 30.18 in Calm     75% 0.00 in 0 W/m2
05:46 48.6 °F 41.4 °F 30.18 in Calm     76% 0.00 in 0 W/m2
05:52 48.2 °F 41.0 °F 30.18 in Calm     76% 0.00 in 0 W/m2
05:58 47.9 °F 41.0 °F 30.18 in Calm     77% 0.00 in 0 W/m2
06:04 47.6 °F 41.1 °F 30.18 in Calm     78% 0.00 in 0 W/m2
06:09 47.4 °F 41.2 °F 30.18 in Calm   3.0 mph 79% 0.00 in 0 W/m2
06:16 47.6 °F 41.4 °F 30.19 in Calm   3.0 mph 79% 0.00 in 0 W/m2
06:22 47.6 °F 41.7 °F 30.19 in Calm     80% 0.00 in 0 W/m2
06:28 47.8 °F 41.9 °F 30.19 in Calm   2.0 mph 80% 0.00 in 0 W/m2
06:34 47.8 °F 41.6 °F 30.19 in Calm     79% 0.00 in 0 W/m2
06:40 47.9 °F 42.0 °F 30.19 in Calm     80% 0.00 in 0 W/m2
06:46 48.1 °F 42.2 °F 30.19 in Calm     80% 0.00 in 0 W/m2
06:52 48.4 °F 42.5 °F 30.20 in Calm     80% 0.00 in 0 W/m2
06:58 48.7 °F 42.8 °F 30.20 in Calm   1.0 mph 80% 0.00 in 0 W/m2
07:04 48.9 °F 42.7 °F 30.20 in SW 1.0 mph 2.0 mph 79% 0.00 in 0 W/m2
07:10 49.5 °F 43.3 °F 30.21 in SW 1.0 mph 1.0 mph 79% 0.00 in 0 W/m2
07:16 50.0 °F 43.4 °F 30.21 in SW 1.0 mph 2.0 mph 78% 0.00 in 0 W/m2
07:22 50.3 °F 43.7 °F 30.21 in SW 1.0 mph 1.0 mph 78% 0.00 in 5 W/m2
07:28 50.3 °F 43.4 °F 30.21 in Calm   1.0 mph 77% 0.00 in 7 W/m2
07:34 50.4 °F 43.5 °F 30.21 in Calm     77% 0.00 in 9 W/m2
07:40 50.6 °F 43.7 °F 30.21 in SW 1.0 mph 2.0 mph 77% 0.00 in 11 W/m2
07:46 50.8 °F 43.8 °F 30.21 in SW 1.0 mph 2.0 mph 77% 0.00 in 12 W/m2
07:52 50.8 °F 43.8 °F 30.21 in SW 1.0 mph 1.0 mph 77% 0.00 in 16 W/m2
07:58 50.9 °F 43.9 °F 30.21 in SW 1.0 mph 1.0 mph 77% 0.00 in 18 W/m2
08:04 50.9 °F 43.9 °F 30.21 in Calm   1.0 mph 77% 0.00 in 21 W/m2
08:10 50.9 °F 44.3 °F 30.22 in Calm   1.0 mph 78% 0.00 in 23 W/m2
08:16 51.3 °F 44.7 °F 30.22 in SW 1.0 mph 2.0 mph 78% 0.00 in 26 W/m2
08:22 51.6 °F 45.0 °F 30.22 in SW 1.0 mph 2.0 mph 78% 0.00 in 33 W/m2
08:28 52.1 °F 45.1 °F 30.23 in Calm   3.0 mph 77% 0.00 in 46 W/m2
08:34 52.6 °F 45.6 °F 30.23 in Calm   4.0 mph 77% 0.00 in 63 W/m2
08:40 53.5 °F 46.1 °F 30.24 in SSW 1.0 mph 1.0 mph 76% 0.00 in 139 W/m2
08:46 54.5 °F 46.4 °F 30.24 in SSW 1.0 mph 2.0 mph 74% 0.00 in 156 W/m2
08:52 55.2 °F 46.7 °F 30.24 in SSW 1.0 mph 3.0 mph 73% 0.00 in 107 W/m2
08:58 55.8 °F 46.9 °F 30.24 in SSW 1.0 mph 3.0 mph 72% 0.00 in 49 W/m2
09:04 56.4 °F 47.1 °F 30.24 in WSW 2.0 mph 4.0 mph 71% 0.00 in 51 W/m2
09:10 57.0 °F 47.7 °F 30.25 in WSW 2.0 mph 3.0 mph 71% 0.00 in 53 W/m2
09:16 57.6 °F 47.5 °F 30.25 in WSW 2.0 mph 4.0 mph 69% 0.00 in 51 W/m2
09:22 58.2 °F 47.3 °F 30.25 in WSW 1.0 mph 2.0 mph 67% 0.00 in 192 W/m2
09:28 59.3 °F 48.7 °F 30.25 in WSW 1.0 mph 2.0 mph 68% 0.00 in 237 W/m2
09:34 59.7 °F 47.9 °F 30.25 in WSW 1.0 mph 3.0 mph 65% 0.00 in 253 W/m2
09:40 60.3 °F 48.1 °F 30.25 in WSW 1.0 mph 2.0 mph 64% 0.00 in 357 W/m2
09:46 60.7 °F 48.4 °F 30.25 in SSW 1.0 mph 3.0 mph 64% 0.00 in 373 W/m2
09:52 61.7 °F 49.8 °F 30.25 in West 1.0 mph 3.0 mph 65% 0.00 in 390 W/m2
09:58 62.2 °F 49.4 °F 30.25 in WSW 1.0 mph 3.0 mph 63% 0.00 in 406 W/m2
10:04 62.4 °F 50.1 °F 30.25 in WSW 1.0 mph 1.0 mph 64% 0.00 in 420 W/m2
10:10 62.0 °F 49.3 °F 30.25 in WSW 2.0 mph 2.0 mph 63% 0.00 in 432 W/m2
10:15 63.2 °F 50.4 °F 30.24 in West 1.0 mph 2.0 mph 63% 0.00 in 445 W/m2
10:22 64.1 °F 50.8 °F 30.24 in Calm     62% 0.00 in 462 W/m2
10:28 63.5 °F 49.4 °F 30.24 in Calm   2.0 mph 60% 0.00 in 475 W/m2
10:34 63.8 °F 51.4 °F 30.24 in WNW 1.0 mph 3.0 mph 64% 0.00 in 485 W/m2
10:40 63.7 °F 50.0 °F 30.24 in WSW 1.0 mph 1.0 mph 61% 0.00 in 497 W/m2
10:46 63.6 °F 49.5 °F 30.24 in WSW 1.0 mph 3.0 mph 60% 0.00 in 506 W/m2
10:52 64.1 °F 49.9 °F 30.24 in SW 1.0 mph 1.0 mph 60% 0.00 in 520 W/m2
10:58 63.9 °F 49.3 °F 30.24 in WSW 1.0 mph 2.0 mph 59% 0.00 in 531 W/m2
11:04 64.9 °F 52.0 °F 30.24 in WSW 1.0 mph 3.0 mph 63% 0.00 in 541 W/m2
11:10 65.0 °F 50.8 °F 30.24 in SW 1.0 mph 2.0 mph 60% 0.00 in 550 W/m2
11:16 64.8 °F 50.6 °F 30.24 in WSW 1.0 mph 4.0 mph 60% 0.00 in 557 W/m2
11:22 65.4 °F 50.7 °F 30.24 in NW 1.0 mph 2.0 mph 59% 0.00 in 566 W/m2
11:28 65.6 °F 50.9 °F 30.24 in WSW 1.0 mph 5.0 mph 59% 0.00 in 575 W/m2
11:34 65.0 °F 50.3 °F 30.24 in NW 1.0 mph 3.0 mph 59% 0.00 in 580 W/m2
11:40 65.8 °F 50.1 °F 30.24 in WNW 1.0 mph 2.0 mph 57% 0.00 in 587 W/m2
11:46 66.3 °F 51.1 °F 30.24 in SW 1.0 mph 2.0 mph 58% 0.00 in 592 W/m2
11:52 66.0 °F 50.3 °F 30.24 in SW 1.0 mph 1.0 mph 57% 0.00 in 598 W/m2
11:58 66.5 °F 50.3 °F 30.24 in NW 1.0 mph 2.0 mph 56% 0.00 in 603 W/m2
12:04 66.4 °F 50.2 °F 30.24 in West 1.0 mph 2.0 mph 56% 0.00 in 605 W/m2
12:10 65.7 °F 50.0 °F 30.24 in WSW 2.0 mph 2.0 mph 57% 0.00 in 610 W/m2
12:16 67.0 °F 51.7 °F 30.24 in SW 2.0 mph 2.0 mph 58% 0.00 in 615 W/m2
12:22 66.2 °F 49.6 °F 30.24 in SSW 1.0 mph 2.0 mph 55% 0.00 in 619 W/m2
12:28 66.6 °F 51.4 °F 30.23 in South 1.0 mph 4.0 mph 58% 0.00 in 621 W/m2
12:34 66.2 °F 50.5 °F 30.23 in SW 2.0 mph 4.0 mph 57% 0.00 in 621 W/m2
12:40 67.7 °F 50.9 °F 30.23 in NW 2.0 mph 2.0 mph 55% 0.00 in 622 W/m2
12:46 68.5 °F 51.2 °F 30.22 in SW 1.0 mph 2.0 mph 54% 0.00 in 624 W/m2
12:52 68.0 °F 52.2 °F 30.22 in West 2.0 mph 2.0 mph 57% 0.00 in 624 W/m2
12:58 67.8 °F 50.0 °F 30.22 in West 1.0 mph 2.0 mph 53% 0.00 in 622 W/m2
13:04 67.8 °F 50.0 °F 30.22 in SSW 1.0 mph 5.0 mph 53% 0.00 in 622 W/m2
13:10 67.2 °F 49.5 °F 30.21 in SSE 3.0 mph 3.0 mph 53% 0.00 in 621 W/m2
13:16 68.3 °F 51.0 °F 30.20 in WSW 2.0 mph 3.0 mph 54% 0.00 in 615 W/m2
13:22 68.3 °F 51.0 °F 30.20 in SSW 1.0 mph 2.0 mph 54% 0.00 in 613 W/m2
13:28 68.1 °F 49.8 °F 30.20 in WSW 3.0 mph 3.0 mph 52% 0.00 in 610 W/m2
13:34 68.7 °F 49.8 °F 30.20 in WSW 2.0 mph 5.0 mph 51% 0.00 in 606 W/m2
13:40 68.7 °F 50.4 °F 30.20 in WSW 1.0 mph 1.0 mph 52% 0.00 in 601 W/m2
13:46 68.8 °F 51.0 °F 30.19 in WSW 2.0 mph 2.0 mph 53% 0.00 in 599 W/m2
13:52 69.3 °F 49.9 °F 30.19 in SW 2.0 mph 2.0 mph 50% 0.00 in 592 W/m2
13:58 69.5 °F 52.1 °F 30.19 in WSW 2.0 mph 2.0 mph 54% 0.00 in 584 W/m2
14:04 68.9 °F 48.9 °F 30.19 in SW 3.0 mph 5.0 mph 49% 0.00 in 584 W/m2
14:10 69.4 °F 50.5 °F 30.19 in West 3.0 mph 3.0 mph 51% 0.00 in 573 W/m2
14:16 69.6 °F 49.6 °F 30.19 in WNW 2.0 mph 3.0 mph 49% 0.00 in 566 W/m2
14:22 69.9 °F 48.2 °F 30.19 in SW 1.0 mph 5.0 mph 46% 0.00 in 555 W/m2
14:28 70.2 °F 49.0 °F 30.18 in WSW 2.0 mph 5.0 mph 47% 0.00 in 550 W/m2
14:34 70.2 °F 48.4 °F 30.18 in SSW 1.0 mph 4.0 mph 46% 0.00 in 545 W/m2
14:40 70.0 °F 48.3 °F 30.18 in SW 3.0 mph 4.0 mph 46% 0.00 in 531 W/m2
14:42 69.9 °F 47.6 °F 30.18 in SW 4.0 mph 7.0 mph 45% 0.00 in 527 W/m2
14:48 69.8 °F 48.1 °F 30.17 in SW 4.0 mph 7.0 mph 46% 0.00 in 515 W/m2
14:54 70.5 °F 48.7 °F 30.17 in SW 2.0 mph 4.0 mph 46% 0.00 in 506 W/m2
15:00 70.3 °F 46.7 °F 30.17 in SSW 1.0 mph 1.0 mph 43% 0.00 in 497 W/m2
15:06 70.5 °F 48.7 °F 30.17 in SSW 2.0 mph 3.0 mph 46% 0.00 in 485 W/m2
15:12 71.4 °F 49.5 °F 30.17 in SSW 1.0 mph 2.0 mph 46% 0.00 in 469 W/m2
15:18 70.8 °F 47.8 °F 30.17 in SW 1.0 mph 3.0 mph 44% 0.00 in 461 W/m2
15:24 70.6 °F 47.6 °F 30.16 in SW 2.0 mph 3.0 mph 44% 0.00 in 445 W/m2
15:30 71.1 °F 47.5 °F 30.17 in WSW 2.0 mph 5.0 mph 43% 0.00 in 436 W/m2
15:36 70.6 °F 46.4 °F 30.16 in SW 2.0 mph 5.0 mph 42% 0.00 in 420 W/m2
15:42 70.6 °F 45.7 °F 30.16 in SSE 2.0 mph 4.0 mph 41% 0.00 in 408 W/m2
15:48 70.4 °F 46.2 °F 30.16 in WSW 2.0 mph 4.0 mph 42% 0.00 in 390 W/m2
15:54 70.8 °F 46.6 °F 30.16 in South 2.0 mph 3.0 mph 42% 0.00 in 376 W/m2
16:00 70.8 °F 47.2 °F 30.16 in SSW 2.0 mph 6.0 mph 43% 0.00 in 362 W/m2
16:06 70.3 °F 46.1 °F 30.16 in SSW 3.0 mph 6.0 mph 42% 0.00 in 345 W/m2
16:12 70.6 °F 47.0 °F 30.16 in West 3.0 mph 3.0 mph 43% 0.00 in 329 W/m2
16:18 70.3 °F 45.5 °F 30.16 in WSW 2.0 mph 6.0 mph 41% 0.00 in 311 W/m2
16:24 70.2 °F 46.0 °F 30.16 in SW 2.0 mph 4.0 mph 42% 0.00 in 299 W/m2
16:30 70.1 °F 45.9 °F 30.15 in SW 2.0 mph 2.0 mph 42% 0.00 in 278 W/m2
16:36 69.6 °F 46.7 °F 30.15 in SSE 3.0 mph 6.0 mph 44% 0.00 in 262 W/m2
16:42 69.5 °F 46.0 °F 30.15 in SW 4.0 mph 4.0 mph 43% 0.00 in 246 W/m2
16:48 69.2 °F 45.7 °F 30.15 in SSW 3.0 mph 4.0 mph 43% 0.00 in 229 W/m2
17:00 69.4 °F 45.9 °F 30.14 in WSW 1.0 mph 2.0 mph 43% 0.00 in 148 W/m2
17:06 68.9 °F 46.1 °F 30.14 in SW 2.0 mph 2.0 mph 44% 0.00 in 35 W/m2
17:12 68.6 °F 45.8 °F 30.14 in SSW 1.0 mph 2.0 mph 44% 0.00 in 32 W/m2
17:18 68.3 °F 45.5 °F 30.14 in SSW 2.0 mph 3.0 mph 44% 0.00 in 30 W/m2
17:24 68.2 °F 46.0 °F 30.14 in SSW 2.0 mph 3.0 mph 45% 0.00 in 28 W/m2
17:30 68.1 °F 45.9 °F 30.14 in SSW 2.0 mph 2.0 mph 45% 0.00 in 25 W/m2
17:36 67.9 °F 45.8 °F 30.14 in SSW 1.0 mph 2.0 mph 45% 0.00 in 23 W/m2
17:42 67.7 °F 46.2 °F 30.14 in SSW 1.0 mph 1.0 mph 46% 0.00 in 19 W/m2
17:49 66.3 °F 50.1 °F 30.14 in Calm     56% 0.00 in 18 W/m2
17:56 65.2 °F 49.6 °F 30.14 in Calm     57% 0.00 in 14 W/m2
18:02 63.9 °F 49.7 °F 30.14 in Calm     60% 0.00 in 11 W/m2
18:08 62.7 °F 50.3 °F 30.14 in Calm     64% 0.00 in 9 W/m2
18:14 61.7 °F 49.4 °F 30.14 in Calm     64% 0.00 in 5 W/m2
18:20 60.9 °F 49.1 °F 30.14 in Calm     65% 0.00 in 0 W/m2
Country Meadow, Clay, NY, USA
Compliments of Weather Underground - 2 mb